DAON

Zenata – Messali El Hadj Airport

Tlemcen, Algeria
TAF DAON 251700Z 2518/2618 28010KT 8000 SCT010 BKN026 FEW030CB TEMPO 2518/2522 -TSRA BECMG 2600/2602 34012KT SCT020 FW023CB BKN033 TEMPO 2600/2609 34015G25KT -TSSHRA
Issued Valid From Valid To
Apr-25 @ 17:00 UTC
(59 minutes ago)
Apr-25 @ 18:00 UTC
(in a few seconds)
Apr-26 @ 18:00 UTC
(in 24 hours)
Apr-25 @ 18:00 to Apr-26 @ 00:00
TAF DAON 251700Z 2518/2618 28010KT 8000 SCT010 BKN026 FEW030CB
Wind Visibility Clouds
280° at 10 knots 7,998 meters
  • Scattered at 1,000' AGL
  • Broken at 2,600' AGL
  • Few at 3,000' AGL
Temporary Apr-25 @ 18:00 to Apr-25 @ 22:00
TEMPO 2518/2522 -TSRA
Conditions
  • Light Thunderstorm
  • Light Rain
Temporary Apr-26 @ 00:00 to Apr-26 @ 09:00
TEMPO 2600/2609 34015G25KT -TSSHRA
Wind Conditions
340° at 15 knots
 Gusting to 25 knots
  • Rain
  • Thunderstorm
Becoming Apr-26 @ 00:00 to Apr-26 @ 18:00
BECMG 2600/2602 34012KT SCT020 FW023CB BKN033
Wind Visibility Clouds
340° at 12 knots 7,998 meters
  • Scattered at 2,000' AGL
  • Broken at 3,300' AGL
TAF DAON 251700Z 2518/2618 28010KT 8000 SCT010 BKN026 FEW030CB TEMPO 2518/2522 -TSRA BECMG 2600/2602 34012KT SCT020 FW023CB BKN033 TEMPO 2600/2609 34015G25KT -TSSHRA
Issued Apr-25 @ 17:00 UTC
(59 minutes ago)
Valid From Apr-25 @ 18:00 UTC
(in a few seconds)
Valid To Apr-26 @ 18:00 UTC
(in 24 hours)
Apr-25 @ 18:00 - Apr-26 @ 00:00
Wind Visibility
280° at 10 knots 7,998 meters
Clouds
  • Scattered at 1,000' AGL
  • Broken at 2,600' AGL
  • Few at 3,000' AGL
Temporary Apr-25 @ 18:00 - Apr-25 @ 22:00
Conditions
  • Light Thunderstorm
  • Light Rain
Temporary Apr-26 @ 00:00 - Apr-26 @ 09:00
Wind
340° at 15 knots
 Gusting to 25 knots
Conditions
  • Rain
  • Thunderstorm
Becoming Apr-26 @ 00:00 - Apr-26 @ 18:00
Wind Visibility
340° at 12 knots 7,998 meters
Clouds
  • Scattered at 2,000' AGL
  • Broken at 3,300' AGL